createdAt,value
2023-05-06T00:02:13.060Z,-65
2023-05-06T00:07:14.277Z,-63
2023-05-06T00:12:15.482Z,-63
2023-05-06T00:17:16.751Z,-63
2023-05-06T00:22:18.016Z,-62
2023-05-06T00:27:19.169Z,-63
2023-05-06T00:32:20.571Z,-62
2023-05-06T00:37:21.806Z,-62
2023-05-06T00:42:23.240Z,-63
2023-05-06T00:47:24.621Z,-63
2023-05-06T00:52:26.181Z,-63
2023-05-06T00:57:27.656Z,-63
2023-05-06T01:02:43.292Z,-63
2023-05-06T01:07:47.409Z,-62
2023-05-06T01:12:49.203Z,-63
2023-05-06T01:17:51.128Z,-62
2023-05-06T01:22:52.362Z,-63
2023-05-06T01:27:53.520Z,-62
2023-05-06T01:32:54.887Z,-62
2023-05-06T01:37:56.112Z,-63
2023-05-06T01:42:57.282Z,-62
2023-05-06T01:47:58.513Z,-63
2023-05-06T01:53:00.288Z,-63
2023-05-06T01:58:02.503Z,-63
2023-05-06T02:03:03.762Z,-62
2023-05-06T02:08:05.013Z,-63
2023-05-06T02:13:06.182Z,-63
2023-05-06T02:18:07.486Z,-63
2023-05-06T02:23:08.778Z,-63
2023-05-06T02:28:10.306Z,-62
2023-05-06T02:33:11.514Z,-62
2023-05-06T02:38:12.656Z,-63
2023-05-06T02:43:13.827Z,-62
2023-05-06T02:48:15.225Z,-62
2023-05-06T02:53:16.434Z,-62
2023-05-06T02:58:17.648Z,-63
2023-05-06T03:03:18.803Z,-62
2023-05-06T03:08:19.939Z,-63
2023-05-06T03:13:21.276Z,-63
2023-05-06T03:18:22.531Z,-63
2023-05-06T03:23:23.706Z,-63
2023-05-06T03:28:24.872Z,-63
2023-05-06T03:33:26.067Z,-62
2023-05-06T03:38:27.326Z,-62
2023-05-06T03:43:28.553Z,-62
2023-05-06T03:48:29.794Z,-63
2023-05-06T03:53:30.995Z,-63
2023-05-06T03:58:32.141Z,-63
2023-05-06T04:03:33.462Z,-63
2023-05-06T04:08:34.740Z,-63
2023-05-06T04:13:35.887Z,-63
2023-05-06T04:18:37.530Z,-63
2023-05-06T04:23:38.724Z,-63
2023-05-06T04:28:39.997Z,-63
2023-05-06T04:33:41.537Z,-63
2023-05-06T04:38:42.702Z,-63
2023-05-06T04:43:43.931Z,-63
2023-05-06T04:48:45.080Z,-63
2023-05-06T04:53:46.741Z,-64
2023-05-06T04:58:47.969Z,-63
2023-05-06T05:03:49.621Z,-63
2023-05-06T05:08:50.950Z,-63
2023-05-06T05:13:52.465Z,-63
2023-05-06T05:18:54.557Z,-63
2023-05-06T05:23:55.747Z,-63
2023-05-06T05:28:56.899Z,-62
2023-05-06T05:33:58.132Z,-63
2023-05-06T05:38:59.376Z,-63
2023-05-06T05:44:00.592Z,-63
2023-05-06T05:49:01.849Z,-63
2023-05-06T05:54:03.082Z,-63
2023-05-06T05:59:04.222Z,-63
2023-05-06T06:04:05.718Z,-63
2023-05-06T06:09:07.172Z,-63
2023-05-06T06:14:08.361Z,-63
2023-05-06T06:19:09.543Z,-63
2023-05-06T06:24:10.731Z,-63
2023-05-06T06:29:12.287Z,-63
2023-05-06T06:34:13.570Z,-64
2023-05-06T06:39:14.757Z,-63
2023-05-06T06:44:15.916Z,-63
2023-05-06T06:49:17.316Z,-63
2023-05-06T06:54:18.520Z,-63
2023-05-06T06:59:19.900Z,-63
2023-05-06T07:04:21.173Z,-63
2023-05-06T07:09:22.465Z,-63
2023-05-06T07:14:25.654Z,-63
2023-05-06T07:19:26.901Z,-63
2023-05-06T07:24:28.088Z,-63
2023-05-06T07:29:29.337Z,-64
2023-05-06T07:34:30.797Z,-63
2023-05-06T07:39:32.311Z,-63
2023-05-06T07:44:33.523Z,-63
2023-05-06T07:49:35.161Z,-62
2023-05-06T07:54:36.532Z,-63
2023-05-06T07:59:37.753Z,-63
2023-05-06T08:04:39.115Z,-63
2023-05-06T08:09:40.349Z,-62
2023-05-06T08:14:41.688Z,-63
2023-05-06T08:19:42.906Z,-65
2023-05-06T08:24:44.134Z,-63
2023-05-06T08:29:45.879Z,-63
2023-05-06T08:34:47.120Z,-66
2023-05-06T08:39:48.282Z,-64
2023-05-06T08:44:49.514Z,-69
2023-05-06T08:49:50.807Z,-69
2023-05-06T08:54:54.489Z,-69
2023-05-06T08:59:55.656Z,-68
2023-05-06T09:04:56.972Z,-69
2023-05-06T09:09:58.225Z,-64
2023-05-06T09:14:59.358Z,-67
2023-05-06T09:20:00.671Z,-65
2023-05-06T09:25:01.839Z,-68
2023-05-06T09:30:03.132Z,-64
2023-05-06T09:35:04.823Z,-64
2023-05-06T09:40:06.093Z,-65
2023-05-06T09:45:07.357Z,-66
2023-05-06T09:50:08.637Z,-65
2023-05-06T09:55:10.115Z,-66
2023-05-06T10:00:14.400Z,-66
2023-05-06T10:05:16.091Z,-68
2023-05-06T10:10:18.132Z,-68
2023-05-06T10:15:19.351Z,-67
2023-05-06T10:20:20.918Z,-69
2023-05-06T10:25:22.144Z,-69
2023-05-06T10:30:23.322Z,-69
2023-05-06T10:35:24.479Z,-69
2023-05-06T10:40:25.839Z,-69
2023-05-06T10:45:27.087Z,-68
2023-05-06T10:50:28.290Z,-64
2023-05-06T10:55:29.489Z,-64
2023-05-06T11:00:30.625Z,-64
2023-05-06T11:05:31.859Z,-64
2023-05-06T11:10:33.138Z,-64
2023-05-06T11:15:34.419Z,-68
2023-05-06T11:20:35.655Z,-65
2023-05-06T11:25:36.957Z,-63
2023-05-06T11:30:38.237Z,-64
2023-05-06T11:35:39.453Z,-68
2023-05-06T11:40:40.648Z,-68
2023-05-06T11:45:41.946Z,-68
2023-05-06T11:50:43.096Z,-69
2023-05-06T11:55:44.314Z,-68
2023-05-06T12:00:45.522Z,-68
2023-05-06T12:05:48.221Z,-68
2023-05-06T12:10:49.458Z,-68
2023-05-06T12:15:50.713Z,-68
2023-05-06T12:20:51.919Z,-67
2023-05-06T12:25:53.130Z,-68
2023-05-06T12:30:54.296Z,-67
2023-05-06T12:35:58.239Z,-69
2023-05-06T12:40:59.466Z,-67
2023-05-06T12:46:00.616Z,-68
2023-05-06T12:51:01.854Z,-69
2023-05-06T12:56:03.016Z,-68
2023-05-06T13:01:04.250Z,-67
2023-05-06T13:06:05.510Z,-69
2023-05-06T13:11:06.663Z,-64
2023-05-06T13:16:07.786Z,-64
2023-05-06T13:21:09.361Z,-65
2023-05-06T13:26:10.616Z,-66
2023-05-06T13:31:11.843Z,-64
2023-05-06T13:36:13.022Z,-66
2023-05-06T13:41:14.237Z,-65
2023-05-06T13:46:15.624Z,-64
2023-05-06T13:51:16.907Z,-64
2023-05-06T13:56:18.079Z,-64
2023-05-06T14:01:19.316Z,-64
2023-05-06T14:06:20.593Z,-68
2023-05-06T14:11:21.854Z,-64
2023-05-06T14:16:23.148Z,-67
2023-05-06T14:21:24.588Z,-67
2023-05-06T14:26:25.818Z,-68
2023-05-06T14:31:27.842Z,-62
2023-05-06T14:36:29.024Z,-63
2023-05-06T14:41:30.942Z,-68
2023-05-06T14:46:32.197Z,-63
2023-05-06T14:51:34.301Z,-64
2023-05-06T14:56:35.777Z,-63
2023-05-06T15:01:37.013Z,-63
2023-05-06T15:06:38.274Z,-62
2023-05-06T15:11:39.503Z,-64
2023-05-06T15:16:41.020Z,-63
2023-05-06T15:21:42.273Z,-64
2023-05-06T15:26:43.489Z,-64
2023-05-06T15:31:44.800Z,-65
2023-05-06T15:36:46.290Z,-64
2023-05-06T15:41:47.998Z,-63
2023-05-06T15:46:49.268Z,-64
2023-05-06T15:51:50.523Z,-64
2023-05-06T15:56:51.771Z,-63
2023-05-06T16:06:57.593Z,-63
2023-05-06T16:11:58.899Z,-63
2023-05-06T16:17:00.040Z,-63
2023-05-06T16:22:01.200Z,-63
2023-05-06T16:27:02.386Z,-62
2023-05-06T16:32:03.606Z,-63
2023-05-06T16:37:05.503Z,-62
2023-05-06T16:42:06.738Z,-62
2023-05-06T16:47:08.007Z,-62
2023-05-06T16:52:09.281Z,-64
2023-05-06T16:57:10.451Z,-64
2023-05-06T17:02:11.694Z,-65
2023-05-06T17:07:12.833Z,-62
2023-05-06T17:12:14.303Z,-62
2023-05-06T17:17:16.046Z,-63
2023-05-06T17:22:17.207Z,-64
2023-05-06T17:27:18.453Z,-65
2023-05-06T17:32:19.803Z,-64
2023-05-06T17:37:21.192Z,-63
2023-05-06T17:42:22.405Z,-67
2023-05-06T17:47:23.885Z,-63
2023-05-06T17:52:26.065Z,-63
2023-05-06T17:57:30.188Z,-63
2023-05-06T18:02:31.494Z,-63
2023-05-06T18:07:32.868Z,-63
2023-05-06T18:12:34.095Z,-63
2023-05-06T18:17:35.360Z,-62
2023-05-06T18:22:36.591Z,-62
2023-05-06T18:27:37.728Z,-69
2023-05-06T18:32:38.925Z,-63
2023-05-06T18:37:40.309Z,-63
2023-05-06T18:42:41.498Z,-63
2023-05-06T18:47:42.804Z,-66
2023-05-06T18:52:44.080Z,-63
2023-05-06T18:57:45.805Z,-66
2023-05-06T19:02:47.035Z,-62
2023-05-06T19:07:48.212Z,-63
2023-05-06T19:12:49.389Z,-64
2023-05-06T19:17:50.609Z,-68
2023-05-06T19:22:51.830Z,-64
2023-05-06T19:27:53.110Z,-63
2023-05-06T19:32:55.555Z,-67
2023-05-06T19:37:58.742Z,-63
2023-05-06T19:43:03.692Z,-63
2023-05-06T19:48:05.031Z,-64
2023-05-06T19:53:06.412Z,-63
2023-05-06T19:58:07.604Z,-63
2023-05-06T20:03:09.590Z,-64
2023-05-06T20:08:11.158Z,-62
2023-05-06T20:13:12.397Z,-64
2023-05-06T20:18:13.627Z,-62
2023-05-06T20:23:14.909Z,-63
2023-05-06T20:28:18.351Z,-62
2023-05-06T20:33:19.547Z,-63
2023-05-06T20:38:20.918Z,-64
2023-05-06T20:43:22.104Z,-64
2023-05-06T20:48:23.412Z,-62
2023-05-06T20:53:24.546Z,-62
2023-05-06T20:58:25.961Z,-62
2023-05-06T21:03:27.312Z,-63
2023-05-06T21:08:28.564Z,-63
2023-05-06T21:13:29.708Z,-62
2023-05-06T21:18:31.056Z,-63
2023-05-06T21:23:32.373Z,-63
2023-05-06T21:28:33.589Z,-63
2023-05-06T21:33:34.788Z,-63
2023-05-06T21:38:35.969Z,-63
2023-05-06T21:43:37.160Z,-63
2023-05-06T21:48:38.327Z,-63
2023-05-06T21:53:39.536Z,-63
2023-05-06T21:58:40.695Z,-63
2023-05-06T22:03:41.992Z,-63
2023-05-06T22:08:43.525Z,-63
2023-05-06T22:13:44.679Z,-62
2023-05-06T22:18:45.902Z,-63
2023-05-06T22:23:47.106Z,-62
2023-05-06T22:28:48.311Z,-63
2023-05-06T22:33:54.320Z,-63
2023-05-06T22:38:55.648Z,-63
2023-05-06T22:43:59.675Z,-63
2023-05-06T22:49:00.896Z,-62
2023-05-06T22:54:02.084Z,-68
2023-05-06T22:59:03.330Z,-63
2023-05-06T23:04:04.572Z,-65
2023-05-06T23:09:07.077Z,-63
2023-05-06T23:14:08.330Z,-68
2023-05-06T23:19:09.493Z,-63
2023-05-06T23:24:10.772Z,-63
2023-05-06T23:29:11.969Z,-63
2023-05-06T23:34:13.178Z,-63
2023-05-06T23:39:14.425Z,-63
2023-05-06T23:44:15.640Z,-64
2023-05-06T23:49:16.829Z,-63
2023-05-06T23:54:18.048Z,-63
2023-05-06T23:59:19.276Z,-63
